createdAt,value
2019-02-01T00:00:21.214Z,27.30
2019-02-01T00:02:19.622Z,30.60
2019-02-01T00:03:25.124Z,31.30
2019-02-01T00:05:23.538Z,31.50
2019-02-01T00:06:29.033Z,30.00
2019-02-01T00:08:27.446Z,27.30
2019-02-01T00:09:32.958Z,34.10
2019-02-01T00:11:31.337Z,32.20
2019-02-01T00:12:36.857Z,34.70
2019-02-01T00:14:35.302Z,31.20
2019-02-01T00:15:40.769Z,29.00
2019-02-01T00:17:39.156Z,29.10
2019-02-01T00:18:44.682Z,23.50
2019-02-01T00:20:43.103Z,33.40
2019-02-01T00:21:48.585Z,32.70
2019-02-01T00:23:46.969Z,29.90
2019-02-01T00:24:52.493Z,26.80
2019-02-01T00:26:51.762Z,29.10
2019-02-01T00:27:57.260Z,29.30
2019-02-01T00:29:55.651Z,29.30
2019-02-01T00:31:01.161Z,30.90
2019-02-01T00:32:59.588Z,31.70
2019-02-01T00:34:05.080Z,32.90
2019-02-01T00:36:03.471Z,32.90
2019-02-01T00:37:08.988Z,32.00
2019-02-01T00:39:07.395Z,30.00
2019-02-01T00:40:12.902Z,30.20
2019-02-01T00:42:11.295Z,35.00
2019-02-01T00:43:16.813Z,26.70
2019-02-01T00:45:15.227Z,28.00
2019-02-01T00:46:20.725Z,28.10
2019-02-01T00:48:19.113Z,29.00
2019-02-01T00:49:24.638Z,33.40
2019-02-01T00:51:23.041Z,25.90
2019-02-01T00:52:28.546Z,28.00
2019-02-01T00:54:26.936Z,31.70
2019-02-01T00:55:32.469Z,30.80
2019-02-01T00:57:30.860Z,31.10
2019-02-01T00:58:36.368Z,29.40
2019-02-01T01:00:34.772Z,27.00
2019-02-01T01:01:40.298Z,26.50
2019-02-01T01:03:38.687Z,31.70
2019-02-01T01:04:44.199Z,28.60
2019-02-01T01:06:42.603Z,30.40
2019-02-01T01:07:50.055Z,30.90
2019-02-01T01:09:46.497Z,36.20
2019-02-01T01:10:52.021Z,29.80
2019-02-01T01:12:50.427Z,35.80
2019-02-01T01:13:55.931Z,30.60
2019-02-01T01:15:54.339Z,34.20
2019-02-01T01:16:59.838Z,31.30
2019-02-01T01:18:58.239Z,34.60
2019-02-01T01:20:03.755Z,33.00
2019-02-01T01:22:02.160Z,38.40
2019-02-01T01:23:07.662Z,34.90
2019-02-01T01:25:06.053Z,35.10
2019-02-01T01:26:11.577Z,31.90
2019-02-01T01:28:09.973Z,35.60
2019-02-01T01:29:15.479Z,32.70
2019-02-01T01:31:13.892Z,32.30
2019-02-01T01:32:19.388Z,34.90
2019-02-01T01:34:17.788Z,35.20
2019-02-01T01:35:23.298Z,32.90
2019-02-01T01:37:21.711Z,35.50
2019-02-01T01:38:27.223Z,39.60
2019-02-01T01:40:25.623Z,38.30
2019-02-01T01:41:31.132Z,38.30
2019-02-01T01:43:29.537Z,37.70
2019-02-01T01:44:35.041Z,41.50
2019-02-01T01:46:33.445Z,34.30
2019-02-01T01:47:38.954Z,39.50
2019-02-01T01:49:37.344Z,36.20
2019-02-01T01:50:42.874Z,38.20
2019-02-01T01:52:41.268Z,37.80
2019-02-01T01:53:46.777Z,34.20
2019-02-01T01:55:45.159Z,34.80
2019-02-01T01:56:50.685Z,36.90
2019-02-01T01:58:49.087Z,35.10
2019-02-01T01:59:54.597Z,38.70
2019-02-01T02:01:52.994Z,41.60
2019-02-01T02:02:58.503Z,43.80
2019-02-01T02:04:56.889Z,37.80
2019-02-01T02:06:02.411Z,35.60
2019-02-01T02:08:00.808Z,39.90
2019-02-01T02:09:06.319Z,39.30
2019-02-01T02:11:04.702Z,39.90
2019-02-01T02:12:10.224Z,40.00
2019-02-01T02:14:08.638Z,37.70
2019-02-01T02:15:14.134Z,41.20
2019-02-01T02:17:12.533Z,41.80
2019-02-01T02:18:18.039Z,40.60
2019-02-01T02:20:16.424Z,36.30
2019-02-01T02:21:21.945Z,41.10
2019-02-01T02:23:20.348Z,38.60
2019-02-01T02:24:25.860Z,42.40
2019-02-01T02:26:24.236Z,42.30
2019-02-01T02:27:29.759Z,36.10
2019-02-01T02:29:28.386Z,42.50
2019-02-01T02:30:33.898Z,38.60
2019-02-01T02:32:32.302Z,39.40
2019-02-01T02:33:37.805Z,37.80
2019-02-01T02:35:36.186Z,41.20
2019-02-01T02:36:41.716Z,38.20
2019-02-01T02:38:40.108Z,39.20
2019-02-01T02:39:45.620Z,37.30
2019-02-01T02:41:44.007Z,46.20
2019-02-01T02:42:49.589Z,40.20
2019-02-01T02:44:47.926Z,44.80
2019-02-01T02:45:53.435Z,37.60
2019-02-01T02:47:51.840Z,42.70
2019-02-01T02:49:00.237Z,40.50
2019-02-01T02:50:56.580Z,40.60
2019-02-01T02:52:02.103Z,40.90
2019-02-01T02:54:00.505Z,43.80
2019-02-01T02:55:06.014Z,45.90
2019-02-01T02:57:04.406Z,41.30
2019-02-01T02:58:09.921Z,41.00
2019-02-01T03:00:08.302Z,41.00
2019-02-01T03:01:13.842Z,44.90
2019-02-01T03:03:12.230Z,45.60
2019-02-01T03:04:17.741Z,48.10
2019-02-01T03:06:16.146Z,45.70
2019-02-01T03:07:21.641Z,46.80
2019-02-01T03:09:20.044Z,39.90
2019-02-01T03:10:25.549Z,42.50
2019-02-01T03:12:23.952Z,44.90
2019-02-01T03:13:29.458Z,43.80
2019-02-01T03:15:27.853Z,53.70
2019-02-01T03:16:33.365Z,46.60
2019-02-01T03:18:31.767Z,44.90
2019-02-01T03:19:37.275Z,39.60
2019-02-01T03:21:36.513Z,44.30
2019-02-01T03:22:42.094Z,36.80
2019-02-01T03:24:40.436Z,43.30
2019-02-01T03:25:45.944Z,41.40
2019-02-01T03:27:44.350Z,43.10
2019-02-01T03:28:49.853Z,44.10
2019-02-01T03:30:48.234Z,43.50
2019-02-01T03:31:54.012Z,40.10
2019-02-01T03:33:52.153Z,39.50
2019-02-01T03:34:58.223Z,39.90
2019-02-01T03:36:56.049Z,43.20
2019-02-01T03:38:01.576Z,48.10
2019-02-01T03:39:59.979Z,44.50
2019-02-01T03:41:05.485Z,45.00
2019-02-01T03:43:03.883Z,54.60
2019-02-01T03:44:09.389Z,48.00
2019-02-01T03:46:07.781Z,54.00
2019-02-01T03:47:13.300Z,49.60
2019-02-01T03:49:11.704Z,43.10
2019-02-01T03:50:17.219Z,43.30
2019-02-01T03:52:16.454Z,53.50
2019-02-01T03:53:21.969Z,52.90
2019-02-01T03:55:20.369Z,46.70
2019-02-01T03:56:25.875Z,50.60
2019-02-01T03:58:24.273Z,46.00
2019-02-01T03:59:29.785Z,47.60
2019-02-01T04:01:28.169Z,51.40
2019-02-01T04:02:33.692Z,50.40
2019-02-01T04:04:32.089Z,48.20
2019-02-01T04:05:37.601Z,52.70
2019-02-01T04:07:35.992Z,46.90
2019-02-01T04:08:41.504Z,46.40
2019-02-01T04:10:39.905Z,53.50
2019-02-01T04:11:45.412Z,55.30
2019-02-01T04:13:43.807Z,53.30
2019-02-01T04:14:49.320Z,55.00
2019-02-01T04:16:47.701Z,51.40
2019-02-01T04:17:53.229Z,48.20
2019-02-01T04:19:51.641Z,58.70
2019-02-01T04:20:57.138Z,53.30
2019-02-01T04:22:55.539Z,57.00
2019-02-01T04:24:01.043Z,57.50
2019-02-01T04:25:59.425Z,51.10
2019-02-01T04:27:04.952Z,49.20
2019-02-01T04:29:03.352Z,53.50
2019-02-01T04:30:08.859Z,49.70
2019-02-01T04:32:07.283Z,49.20
2019-02-01T04:33:12.771Z,46.10
2019-02-01T04:35:11.170Z,54.70
2019-02-01T04:36:16.683Z,53.80
2019-02-01T04:38:15.083Z,48.20
2019-02-01T04:39:20.586Z,52.40
2019-02-01T04:41:19.201Z,51.20
2019-02-01T04:42:24.732Z,62.40
2019-02-01T04:44:23.122Z,58.00
2019-02-01T04:45:28.633Z,59.20
2019-02-01T04:47:27.017Z,55.40
2019-02-01T04:48:32.562Z,51.60
2019-02-01T04:50:30.938Z,51.70
2019-02-01T04:51:36.450Z,56.60
2019-02-01T04:53:34.845Z,53.20
2019-02-01T04:54:40.835Z,53.30
2019-02-01T04:56:38.743Z,60.70
2019-02-01T04:57:44.267Z,53.50
2019-02-01T04:59:42.662Z,60.50
2019-02-01T05:00:48.173Z,59.70
2019-02-01T05:02:46.563Z,55.10
2019-02-01T05:03:52.086Z,51.70
2019-02-01T05:05:50.477Z,54.40
2019-02-01T05:06:55.985Z,62.30
2019-02-01T05:08:56.546Z,56.20
2019-02-01T05:09:59.926Z,57.00
2019-02-01T05:11:58.370Z,61.50
2019-02-01T05:13:03.803Z,56.10
2019-02-01T05:15:02.208Z,58.20
2019-02-01T05:16:07.713Z,62.20
2019-02-01T05:18:06.098Z,57.50
2019-02-01T05:19:11.616Z,60.60
2019-02-01T05:21:10.016Z,58.50
2019-02-01T05:22:15.529Z,58.70
2019-02-01T05:24:13.921Z,60.00
2019-02-01T05:25:19.439Z,62.60
2019-02-01T05:27:17.822Z,53.60
2019-02-01T05:28:23.339Z,62.90
2019-02-01T05:30:21.756Z,48.90
2019-02-01T05:31:27.250Z,53.80
2019-02-01T05:33:25.636Z,54.70
2019-02-01T05:34:31.157Z,55.10
2019-02-01T05:36:29.558Z,47.90
2019-02-01T05:37:35.063Z,59.80
2019-02-01T05:39:33.453Z,53.80
2019-02-01T05:40:38.968Z,63.70
2019-02-01T05:42:37.355Z,66.00
2019-02-01T05:43:42.876Z,58.70
2019-02-01T05:45:41.283Z,61.50
2019-02-01T05:46:46.788Z,55.80
2019-02-01T05:48:45.179Z,59.10
2019-02-01T05:49:50.703Z,56.80
2019-02-01T05:51:49.095Z,58.40
2019-02-01T05:52:54.611Z,60.50
2019-02-01T05:54:53.001Z,59.00
2019-02-01T05:55:58.512Z,67.60
2019-02-01T05:57:56.898Z,54.90
2019-02-01T05:59:02.419Z,59.60
2019-02-01T06:01:00.813Z,54.40
2019-02-01T06:02:06.321Z,60.00
2019-02-01T06:04:04.719Z,58.10
2019-02-01T06:05:10.230Z,70.40
2019-02-01T06:07:08.617Z,54.70
2019-02-01T06:08:14.140Z,54.20
2019-02-01T06:10:12.536Z,64.80
2019-02-01T06:11:18.063Z,58.50
2019-02-01T06:13:16.421Z,52.80
2019-02-01T06:14:21.946Z,55.60
2019-02-01T06:16:20.345Z,54.80
2019-02-01T06:17:25.855Z,57.20
2019-02-01T06:19:24.248Z,55.60
2019-02-01T06:20:39.761Z,51.30
2019-02-01T06:22:28.192Z,69.20
2019-02-01T06:23:33.672Z,58.20
2019-02-01T06:25:32.071Z,53.80
2019-02-01T06:26:37.576Z,64.70
2019-02-01T06:28:35.964Z,60.30
2019-02-01T06:29:41.587Z,60.30
2019-02-01T06:31:39.882Z,55.30
2019-02-01T06:32:45.392Z,59.90
2019-02-01T06:34:43.787Z,61.30
2019-02-01T06:35:49.296Z,61.40
2019-02-01T06:37:47.682Z,56.60
2019-02-01T06:38:53.201Z,61.30
2019-02-01T06:40:51.601Z,60.40
2019-02-01T06:41:57.107Z,53.90
2019-02-01T06:43:55.490Z,63.60
2019-02-01T06:45:01.013Z,58.60
2019-02-01T06:46:59.424Z,63.10
2019-02-01T06:48:04.921Z,60.90
2019-02-01T06:50:03.315Z,52.80
2019-02-01T06:51:08.822Z,59.20
2019-02-01T06:53:07.231Z,71.00
2019-02-01T06:54:12.744Z,66.60
2019-02-01T06:56:11.133Z,56.40
2019-02-01T06:57:16.647Z,56.90
2019-02-01T06:59:15.120Z,59.10
2019-02-01T07:00:20.559Z,57.80
2019-02-01T07:02:18.955Z,61.50
2019-02-01T07:03:24.473Z,51.10
2019-02-01T07:05:22.863Z,55.70
2019-02-01T07:06:28.377Z,56.70
2019-02-01T07:08:26.752Z,57.00
2019-02-01T07:09:32.277Z,62.50
2019-02-01T07:11:30.669Z,58.60
2019-02-01T07:12:36.181Z,52.20
2019-02-01T07:14:34.567Z,67.20
2019-02-01T07:15:40.090Z,63.70
2019-02-01T07:17:38.620Z,63.40
2019-02-01T07:18:44.003Z,55.30
2019-02-01T07:20:42.410Z,60.20
2019-02-01T07:21:47.903Z,54.20
2019-02-01T07:23:46.291Z,58.90
2019-02-01T07:24:51.815Z,56.10
2019-02-01T07:26:50.210Z,62.30
2019-02-01T07:27:55.718Z,57.90
2019-02-01T07:29:54.111Z,56.40
2019-02-01T07:30:59.625Z,55.40
2019-02-01T07:32:58.050Z,59.40
2019-02-01T07:34:03.556Z,55.10
2019-02-01T07:36:01.941Z,57.50
2019-02-01T07:37:07.464Z,56.50
2019-02-01T07:39:05.859Z,57.50
2019-02-01T07:40:11.375Z,51.50
2019-02-01T07:42:09.769Z,53.30
2019-02-01T07:43:15.281Z,60.40
2019-02-01T07:45:13.663Z,55.30
2019-02-01T07:46:19.190Z,58.20
2019-02-01T07:48:17.590Z,53.40
2019-02-01T07:49:23.098Z,49.30
2019-02-01T07:51:21.480Z,55.40
2019-02-01T07:52:27.002Z,55.90
2019-02-01T07:54:25.403Z,59.00
2019-02-01T07:55:30.918Z,55.10
2019-02-01T07:57:29.317Z,50.20
2019-02-01T07:58:34.819Z,52.10
2019-02-01T08:00:33.207Z,49.10
2019-02-01T08:01:38.729Z,53.60
2019-02-01T08:03:38.652Z,51.10
2019-02-01T08:04:42.637Z,56.50
2019-02-01T08:06:41.605Z,54.60
2019-02-01T08:07:46.550Z,54.60
2019-02-01T08:09:44.941Z,59.50
2019-02-01T08:10:50.453Z,62.20
2019-02-01T08:12:48.850Z,61.10
2019-02-01T08:13:54.360Z,54.60
2019-02-01T08:15:52.877Z,56.80
2019-02-01T08:16:58.279Z,60.80
2019-02-01T08:18:56.663Z,55.10
2019-02-01T08:20:02.175Z,63.60
2019-02-01T08:22:00.560Z,56.30
2019-02-01T08:23:06.079Z,59.00
2019-02-01T08:25:04.486Z,52.50
2019-02-01T08:26:09.998Z,59.10
2019-02-01T08:28:08.384Z,56.70
2019-02-01T08:29:13.904Z,56.60
2019-02-01T08:31:12.283Z,54.90
2019-02-01T08:32:17.808Z,57.20
2019-02-01T08:34:16.205Z,60.80
2019-02-01T08:35:21.707Z,62.80
2019-02-01T08:37:20.097Z,57.20
2019-02-01T08:38:25.620Z,65.10
2019-02-01T08:40:24.047Z,53.60
2019-02-01T08:41:29.553Z,49.50
2019-02-01T08:43:27.953Z,61.10
2019-02-01T08:44:33.461Z,61.60
2019-02-01T08:46:31.848Z,55.00
2019-02-01T08:47:37.373Z,55.90
2019-02-01T08:49:35.781Z,58.00
2019-02-01T08:50:41.281Z,60.10
2019-02-01T08:52:39.665Z,67.00
2019-02-01T08:53:45.187Z,62.30
2019-02-01T08:57:15.152Z,53.30
2019-02-01T08:58:20.652Z,54.70
2019-02-01T09:00:28.314Z,61.80
2019-02-01T09:01:24.563Z,59.00
2019-02-01T09:03:22.958Z,56.00
2019-02-01T09:04:28.467Z,56.00
2019-02-01T09:06:26.848Z,56.90
2019-02-01T09:07:32.380Z,54.40
2019-02-01T09:09:30.772Z,54.10
2019-02-01T09:10:36.283Z,56.40
2019-02-01T09:12:34.668Z,57.00
2019-02-01T09:13:40.189Z,53.30
2019-02-01T09:15:38.597Z,58.90
2019-02-01T09:16:44.102Z,60.20
2019-02-01T09:18:42.498Z,58.50
2019-02-01T09:19:48.012Z,47.40
2019-02-01T09:21:50.479Z,55.10
2019-02-01T09:22:51.919Z,59.10
2019-02-01T09:24:50.317Z,53.80
2019-02-01T09:25:55.834Z,56.20
2019-02-01T09:27:54.303Z,57.70
2019-02-01T09:28:59.735Z,53.70
2019-02-01T09:30:58.979Z,57.40
2019-02-01T09:32:04.493Z,54.30
2019-02-01T09:34:02.902Z,61.10
2019-02-01T09:35:08.405Z,62.80
2019-02-01T09:37:06.796Z,61.80
2019-02-01T09:38:12.318Z,55.80
2019-02-01T09:40:10.714Z,53.30
2019-02-01T09:41:16.225Z,60.10
2019-02-01T09:43:14.608Z,57.90
2019-02-01T09:44:20.138Z,57.00
2019-02-01T09:46:19.379Z,56.40
2019-02-01T09:47:24.892Z,59.70
2019-02-01T09:49:23.290Z,58.10
2019-02-01T09:50:28.806Z,68.40
2019-02-01T09:52:27.189Z,66.70
2019-02-01T09:53:32.716Z,57.90
2019-02-01T09:55:31.112Z,61.10
2019-02-01T09:56:36.624Z,61.50
2019-02-01T09:58:35.033Z,56.50
2019-02-01T09:59:40.536Z,61.10
2019-02-01T10:01:38.917Z,66.00
2019-02-01T10:02:44.449Z,64.50
2019-02-01T10:04:42.837Z,56.50
2019-02-01T10:05:48.356Z,66.50
2019-02-01T10:07:46.737Z,64.10
2019-02-01T10:08:52.263Z,63.90
2019-02-01T10:10:50.658Z,74.10
2019-02-01T10:11:56.168Z,68.40
2019-02-01T10:13:54.575Z,65.00
2019-02-01T10:15:00.342Z,64.40
2019-02-01T10:16:58.460Z,67.30
2019-02-01T10:18:03.989Z,62.10
2019-02-01T10:20:02.978Z,67.90
2019-02-01T10:21:07.924Z,65.70
2019-02-01T10:23:06.279Z,69.90
2019-02-01T10:24:11.805Z,66.20
2019-02-01T10:26:10.205Z,57.20
2019-02-01T10:27:15.717Z,65.30
2019-02-01T10:29:14.112Z,67.30
2019-02-01T10:30:19.629Z,64.70
2019-02-01T10:32:18.023Z,64.30
2019-02-01T10:33:23.538Z,72.00
2019-02-01T10:35:21.935Z,75.30
2019-02-01T10:36:27.450Z,65.60
2019-02-01T10:38:25.831Z,67.50
2019-02-01T10:39:31.359Z,62.70
2019-02-01T10:41:29.759Z,71.50
2019-02-01T10:42:35.270Z,65.40
2019-02-01T10:44:33.666Z,60.50
2019-02-01T10:45:39.178Z,66.70
2019-02-01T10:47:37.561Z,63.10
2019-02-01T10:48:43.090Z,64.40
2019-02-01T10:50:41.487Z,61.60
2019-02-01T10:51:46.996Z,62.90
2019-02-01T10:53:45.626Z,63.80
2019-02-01T10:54:50.911Z,67.60
2019-02-01T10:56:49.310Z,65.00
2019-02-01T10:57:54.823Z,61.30
2019-02-01T10:59:53.222Z,67.90
2019-02-01T11:00:58.736Z,61.90
2019-02-01T11:02:57.119Z,71.50
2019-02-01T11:04:02.646Z,68.70
2019-02-01T11:06:01.049Z,73.10
2019-02-01T11:07:06.553Z,68.70
2019-02-01T11:09:04.941Z,70.30
2019-02-01T11:10:10.554Z,64.30
2019-02-01T11:12:14.173Z,70.90
2019-02-01T11:13:14.376Z,67.40
2019-02-01T11:15:12.770Z,68.90
2019-02-01T11:16:26.709Z,76.30
2019-02-01T11:18:16.674Z,72.90
2019-02-01T11:19:22.201Z,77.40
2019-02-01T11:21:20.596Z,67.40
2019-02-01T11:22:36.321Z,68.10
2019-02-01T11:24:24.511Z,76.30
2019-02-01T11:25:30.028Z,63.70
2019-02-01T11:27:28.427Z,71.70
2019-02-01T11:28:33.940Z,76.10
2019-02-01T11:30:32.332Z,67.30
2019-02-01T11:31:37.858Z,63.80
2019-02-01T11:33:36.236Z,74.10
2019-02-01T11:34:41.763Z,70.70
2019-02-01T11:36:40.165Z,73.20
2019-02-01T11:37:45.675Z,63.90
2019-02-01T11:39:44.142Z,65.80
2019-02-01T11:40:49.587Z,72.80
2019-02-01T11:42:47.978Z,66.90
2019-02-01T11:43:53.497Z,70.70
2019-02-01T11:45:51.897Z,71.20
2019-02-01T11:46:57.409Z,75.40
2019-02-01T11:48:55.799Z,69.60
2019-02-01T11:50:03.045Z,74.50
2019-02-01T11:51:59.730Z,72.50
2019-02-01T11:53:05.235Z,69.50
2019-02-01T11:55:03.640Z,71.70
2019-02-01T11:56:09.149Z,72.60
2019-02-01T11:58:07.539Z,79.10
2019-02-01T11:59:13.064Z,71.00
2019-02-01T12:01:11.462Z,71.30
2019-02-01T12:02:16.974Z,68.10
2019-02-01T12:04:15.365Z,76.10
2019-02-01T12:05:20.888Z,68.60
2019-02-01T12:07:19.292Z,68.60
2019-02-01T12:08:24.799Z,78.80
2019-02-01T12:10:23.239Z,72.40
2019-02-01T12:11:28.716Z,75.30
2019-02-01T12:13:27.105Z,72.20
2019-02-01T12:14:34.726Z,70.20
2019-02-01T12:16:31.034Z,68.20
2019-02-01T12:17:36.546Z,66.40
2019-02-01T12:19:34.935Z,73.40
2019-02-01T12:20:40.478Z,71.00
2019-02-01T12:22:38.861Z,74.40
2019-02-01T12:23:44.373Z,69.80
2019-02-01T12:25:42.784Z,83.50
2019-02-01T12:26:48.289Z,76.50
2019-02-01T12:28:46.673Z,71.70
2019-02-01T12:29:52.199Z,69.70
2019-02-01T12:31:50.601Z,74.60
2019-02-01T12:32:56.113Z,70.30
2019-02-01T12:34:54.504Z,72.80
2019-02-01T12:36:00.034Z,71.00
2019-02-01T12:37:58.433Z,73.30
2019-02-01T12:39:03.943Z,74.00
2019-02-01T12:41:02.344Z,72.70
2019-02-01T12:42:07.862Z,70.20
2019-02-01T12:44:06.282Z,75.30
2019-02-01T12:45:11.803Z,75.50
2019-02-01T12:47:10.207Z,71.80
2019-02-01T12:48:15.718Z,69.50
2019-02-01T12:50:14.103Z,69.50
2019-02-01T12:51:19.630Z,70.50
2019-02-01T12:53:18.032Z,71.10
2019-02-01T12:54:23.544Z,70.60
2019-02-01T12:56:21.950Z,79.10
2019-02-01T12:57:28.008Z,68.10
2019-02-01T12:59:25.843Z,77.10
2019-02-01T13:00:31.372Z,74.00
2019-02-01T13:02:29.772Z,73.00
2019-02-01T13:03:35.283Z,77.90
2019-02-01T13:05:33.671Z,70.30
2019-02-01T13:06:39.197Z,74.90
2019-02-01T13:08:37.589Z,65.90
2019-02-01T13:09:43.110Z,69.00
2019-02-01T13:11:41.507Z,77.40
2019-02-01T13:12:47.021Z,70.20
2019-02-01T13:14:45.399Z,72.00
2019-02-01T13:15:50.924Z,66.60
2019-02-01T13:17:49.324Z,71.40
2019-02-01T13:18:54.837Z,70.30
2019-02-01T13:20:53.814Z,71.50
2019-02-01T13:21:58.862Z,67.00
2019-02-01T13:23:57.268Z,65.70
2019-02-01T13:25:02.774Z,74.30
2019-02-01T13:27:01.173Z,67.00
2019-02-01T13:28:06.687Z,66.20
2019-02-01T13:30:05.071Z,73.40
2019-02-01T13:31:11.400Z,76.50
2019-02-01T13:33:09.004Z,68.00
2019-02-01T13:34:14.522Z,74.80
2019-02-01T13:36:12.901Z,77.10
2019-02-01T13:37:18.427Z,70.60
2019-02-01T13:39:16.838Z,75.00
2019-02-01T13:40:22.335Z,76.30
2019-02-01T13:42:20.740Z,73.30
2019-02-01T13:43:26.246Z,75.10
2019-02-01T13:45:24.635Z,70.70
2019-02-01T13:46:30.154Z,68.60
2019-02-01T13:48:28.652Z,68.70
2019-02-01T13:49:34.071Z,71.90
2019-02-01T13:51:32.480Z,70.10
2019-02-01T13:52:38.003Z,65.20
2019-02-01T13:54:36.417Z,65.80
2019-02-01T13:55:41.904Z,68.40
2019-02-01T13:57:40.306Z,66.90
2019-02-01T13:58:45.817Z,69.10
2019-02-01T14:00:44.202Z,69.70
2019-02-01T14:01:49.726Z,70.80
2019-02-01T14:03:48.127Z,68.20
2019-02-01T14:04:53.641Z,67.50
2019-02-01T14:06:52.046Z,65.10
2019-02-01T14:08:02.054Z,61.00
2019-02-01T14:10:05.990Z,65.20
2019-02-01T14:11:01.464Z,67.10
2019-02-01T14:12:59.866Z,61.90
2019-02-01T14:14:12.153Z,60.30
2019-02-01T14:16:04.610Z,71.40
2019-02-01T14:17:10.850Z,70.50
2019-02-01T14:19:08.533Z,58.70
2019-02-01T14:20:14.046Z,66.00
2019-02-01T14:22:12.447Z,65.50
2019-02-01T14:23:17.956Z,70.90
2019-02-01T14:25:16.388Z,66.40
2019-02-01T14:26:22.657Z,64.90
2019-02-01T14:28:20.286Z,72.60
2019-02-01T14:29:25.925Z,64.90
2019-02-01T14:31:24.183Z,63.00
2019-02-01T14:32:29.712Z,64.70
2019-02-01T14:34:28.113Z,63.00
2019-02-01T14:35:33.630Z,67.20
2019-02-01T14:37:32.025Z,62.10
2019-02-01T14:38:37.536Z,66.50
2019-02-01T14:40:35.929Z,69.90
2019-02-01T14:41:41.473Z,61.90
2019-02-01T14:43:39.846Z,60.60
2019-02-01T14:44:45.358Z,60.90
2019-02-01T14:46:43.739Z,63.00
2019-02-01T14:47:49.268Z,70.80
2019-02-01T14:49:47.665Z,63.90
2019-02-01T14:50:53.271Z,68.80
2019-02-01T14:52:51.622Z,63.70
2019-02-01T14:53:58.814Z,62.70
2019-02-01T14:55:55.481Z,60.90
2019-02-01T14:57:01.006Z,63.20
2019-02-01T14:58:59.399Z,64.90
2019-02-01T15:00:04.916Z,71.30
2019-02-01T15:02:03.302Z,62.30
2019-02-01T15:03:08.830Z,64.40
2019-02-01T15:05:07.232Z,74.20
2019-02-01T15:06:12.750Z,74.40
2019-02-01T15:08:11.142Z,62.70
2019-02-01T15:09:16.663Z,65.20
2019-02-01T15:11:15.045Z,61.80
2019-02-01T15:12:20.568Z,63.30
2019-02-01T15:14:18.977Z,70.40
2019-02-01T15:15:24.479Z,68.70
2019-02-01T15:17:22.880Z,59.80
2019-02-01T15:18:28.389Z,65.30
2019-02-01T15:20:26.780Z,68.90
2019-02-01T15:21:32.307Z,62.00
2019-02-01T15:23:30.702Z,71.70
2019-02-01T15:24:36.218Z,58.40
2019-02-01T15:26:34.598Z,64.90
2019-02-01T15:27:40.128Z,63.10
2019-02-01T15:29:38.543Z,60.20
2019-02-01T15:30:44.043Z,56.80
2019-02-01T15:32:42.446Z,55.50
2019-02-01T15:33:47.964Z,63.30
2019-02-01T15:35:46.345Z,63.00
2019-02-01T15:36:51.866Z,64.50
2019-02-01T15:38:50.272Z,68.40
2019-02-01T15:39:55.778Z,62.50
2019-02-01T15:41:54.158Z,54.10
2019-02-01T15:42:59.688Z,57.70
2019-02-01T15:44:58.087Z,60.10
2019-02-01T15:46:03.599Z,64.50
2019-02-01T15:48:01.998Z,66.50
2019-02-01T15:49:07.516Z,62.70
2019-02-01T15:51:06.128Z,63.70
2019-02-01T15:52:11.653Z,67.80
2019-02-01T15:54:21.367Z,62.80
2019-02-01T15:55:19.363Z,56.30
2019-02-01T15:57:14.799Z,55.70
2019-02-01T15:58:20.326Z,62.70
2019-02-01T16:00:18.728Z,57.90
2019-02-01T16:01:24.239Z,60.00
2019-02-01T16:03:22.637Z,63.90
2019-02-01T16:04:28.147Z,64.00
2019-02-01T16:06:26.536Z,57.10
2019-02-01T16:07:32.058Z,63.60
2019-02-01T16:09:30.461Z,65.00
2019-02-01T16:10:36.449Z,65.70
2019-02-01T16:12:34.360Z,66.30
2019-02-01T16:13:39.888Z,63.40
2019-02-01T16:15:38.287Z,63.60
2019-02-01T16:16:43.805Z,61.10
2019-02-01T16:18:42.201Z,65.70
2019-02-01T16:19:47.711Z,62.90
2019-02-01T16:21:46.237Z,57.90
2019-02-01T16:22:51.701Z,61.80
2019-02-01T16:24:50.030Z,57.10
2019-02-01T16:25:55.542Z,53.30
2019-02-01T16:27:53.924Z,64.00
2019-02-01T16:28:59.451Z,58.50
2019-02-01T16:30:57.843Z,57.00
2019-02-01T16:32:03.360Z,60.40
2019-02-01T16:34:01.757Z,62.30
2019-02-01T16:35:07.335Z,59.00
2019-02-01T16:37:05.658Z,62.50
2019-02-01T16:38:11.188Z,55.10
2019-02-01T16:40:09.586Z,63.60
2019-02-01T16:41:15.102Z,59.50
2019-02-01T16:43:13.483Z,55.80
2019-02-01T16:44:19.014Z,65.20
2019-02-01T16:46:17.410Z,61.00
2019-02-01T16:47:22.928Z,56.30
2019-02-01T16:49:21.324Z,56.60
2019-02-01T16:50:26.835Z,61.70
2019-02-01T16:52:25.221Z,52.80
2019-02-01T16:53:30.747Z,54.00
2019-02-01T16:55:29.150Z,61.10
2019-02-01T16:56:34.661Z,65.50
2019-02-01T16:58:33.131Z,63.50
2019-02-01T16:59:40.835Z,55.30
2019-02-01T17:01:36.964Z,60.30
2019-02-01T17:02:42.489Z,55.50
2019-02-01T17:04:40.887Z,54.40
2019-02-01T17:05:46.399Z,56.80
2019-02-01T17:07:44.793Z,59.50
2019-02-01T17:08:50.313Z,58.60
2019-02-01T17:10:48.947Z,58.60
2019-02-01T17:11:54.462Z,59.60
2019-02-01T17:13:52.861Z,59.60
2019-02-01T17:14:58.373Z,64.80
2019-02-01T17:16:56.761Z,60.90
2019-02-01T17:18:02.286Z,62.60
2019-02-01T17:20:00.686Z,52.50
2019-02-01T17:21:06.201Z,50.30
2019-02-01T17:23:04.589Z,58.50
2019-02-01T17:24:10.663Z,55.50
2019-02-01T17:26:08.515Z,66.00
2019-02-01T17:27:14.029Z,54.70
2019-02-01T17:29:13.051Z,55.90
2019-02-01T17:30:17.934Z,56.10
2019-02-01T17:32:16.318Z,56.30
2019-02-01T17:33:21.847Z,60.60
2019-02-01T17:35:20.251Z,55.10
2019-02-01T17:36:25.761Z,60.90
2019-02-01T17:38:24.147Z,63.40
2019-02-01T17:39:29.670Z,54.80
2019-02-01T17:41:28.075Z,59.90
2019-02-01T17:42:33.584Z,59.80
2019-02-01T17:44:31.985Z,66.80
2019-02-01T17:45:37.499Z,65.00
2019-02-01T17:47:35.880Z,58.50
2019-02-01T17:48:41.410Z,68.60
2019-02-01T17:50:39.811Z,60.60
2019-02-01T17:51:51.012Z,54.90
2019-02-01T17:53:43.709Z,57.50
2019-02-01T17:54:49.234Z,55.70
2019-02-01T17:56:47.633Z,61.10
2019-02-01T17:57:53.149Z,58.10
2019-02-01T17:59:51.562Z,63.30
2019-02-01T18:00:57.061Z,65.50
2019-02-01T18:02:55.449Z,62.10
2019-02-01T18:04:00.971Z,77.20
2019-02-01T18:05:59.372Z,63.10
2019-02-01T18:07:04.880Z,67.90
2019-02-01T18:09:03.269Z,64.00
2019-02-01T18:10:08.795Z,66.70
2019-02-01T18:12:07.199Z,65.60
2019-02-01T18:13:12.707Z,64.40
2019-02-01T18:15:11.108Z,64.90
2019-02-01T18:16:16.621Z,66.40
2019-02-01T18:18:15.009Z,57.50
2019-02-01T18:19:20.530Z,59.40
2019-02-01T18:21:18.942Z,64.30
2019-02-01T18:22:24.442Z,58.50
2019-02-01T18:24:22.832Z,65.40
2019-02-01T18:25:28.360Z,59.40
2019-02-01T18:27:26.761Z,57.00
2019-02-01T18:28:32.267Z,62.10
2019-02-01T18:30:30.672Z,62.50
2019-02-01T18:31:36.184Z,66.20
2019-02-01T18:33:34.572Z,59.80
2019-02-01T18:34:40.100Z,63.30
2019-02-01T18:36:38.496Z,59.60
2019-02-01T18:37:44.010Z,59.30
2019-02-01T18:39:42.405Z,59.00
2019-02-01T18:40:47.922Z,59.10
2019-02-01T18:42:46.312Z,62.50
2019-02-01T18:43:51.836Z,62.40
2019-02-01T18:45:50.240Z,63.20
2019-02-01T18:46:55.754Z,66.00
2019-02-01T18:48:54.135Z,60.80
2019-02-01T18:49:59.660Z,63.60
2019-02-01T18:51:58.060Z,57.80
2019-02-01T18:53:03.581Z,57.50
2019-02-01T18:55:02.827Z,61.30
2019-02-01T18:56:08.342Z,62.10
2019-02-01T18:58:06.724Z,59.50
2019-02-01T18:59:12.253Z,60.10
2019-02-01T19:01:10.653Z,60.30
2019-02-01T19:02:16.163Z,63.80
2019-02-01T19:04:14.551Z,59.70
2019-02-01T19:05:20.077Z,63.40
2019-02-01T19:07:18.479Z,67.50
2019-02-01T19:08:23.988Z,60.10
2019-02-01T19:10:22.387Z,60.80
2019-02-01T19:11:27.896Z,66.60
2019-02-01T19:13:26.281Z,70.60
2019-02-01T19:14:31.809Z,65.50
2019-02-01T19:16:30.205Z,64.30
2019-02-01T19:17:35.714Z,64.70
2019-02-01T19:19:34.106Z,62.00
2019-02-01T19:20:39.636Z,62.90
2019-02-01T19:22:38.032Z,61.80
2019-02-01T19:23:43.548Z,60.30
2019-02-01T19:25:45.416Z,63.10
2019-02-01T19:26:47.458Z,57.30
2019-02-01T19:28:45.842Z,63.00
2019-02-01T19:29:51.366Z,59.40
2019-02-01T19:31:49.772Z,61.10
2019-02-01T19:32:55.282Z,60.10
2019-02-01T19:34:53.669Z,65.30
2019-02-01T19:36:09.345Z,60.90
2019-02-01T19:37:57.602Z,59.70
2019-02-01T19:39:03.106Z,56.90
2019-02-01T19:41:01.510Z,63.50
2019-02-01T19:42:07.019Z,68.80
2019-02-01T19:44:05.408Z,57.50
2019-02-01T19:45:10.933Z,54.50